Time;durP1;ratioP1;P1;durP2;ratioP2;P2;SDS_P1;SDS_P2;PMS_P1;PMS_P2;Temp;Humidity;BMP_temperature;BMP_pressure;BME280_temperature;BME280_humidity;BME280_pressure;Samples;Min_cycle;Max_cycle;Signal;HPM_P1;HPM_P2
2023/09/29 00:02:08;;;;;;;9.40;8.40;;;12.30;99.90;;;;;;5092821;28;20237;-69
2023/09/29 00:04:34;;;;;;;12.63;8.67;;;12.30;99.90;;;;;;5092662;28;20193;-69
2023/09/29 00:07:03;;;;;;;11.17;8.37;;;12.20;99.90;;;;;;5092687;28;20253;-69
2023/09/29 00:09:29;;;;;;;11.70;8.03;;;12.10;99.90;;;;;;5092800;28;20200;-69
2023/09/29 00:11:59;;;;;;;9.07;7.87;;;12.10;99.90;;;;;;5092729;28;20200;-69
2023/09/29 00:14:26;;;;;;;11.13;8.23;;;12.00;99.90;;;;;;5092653;28;20212;-69
2023/09/29 00:16:52;;;;;;;9.30;8.40;;;11.90;99.90;;;;;;5092445;28;20228;-69
2023/09/29 00:19:19;;;;;;;9.40;8.10;;;11.80;99.90;;;;;;5092425;28;20200;-68
2023/09/29 00:21:46;;;;;;;9.20;8.30;;;11.80;99.90;;;;;;5092725;28;20273;-68
2023/09/29 00:24:12;;;;;;;11.90;8.50;;;11.70;99.90;;;;;;5092401;28;20702;-69
2023/09/29 00:26:39;;;;;;;10.53;8.27;;;11.70;99.90;;;;;;5092543;28;20196;-69
2023/09/29 00:29:07;;;;;;;9.07;8.17;;;11.70;99.90;;;;;;5092513;28;20197;-68
2023/09/29 00:31:34;;;;;;;10.63;8.63;;;11.60;99.90;;;;;;5092463;28;20201;-69
2023/09/29 00:34:01;;;;;;;9.20;8.17;;;11.80;99.90;;;;;;5092304;28;20200;-69
2023/09/29 00:36:27;;;;;;;8.80;7.90;;;11.90;99.90;;;;;;5095616;28;20615;-69
2023/09/29 00:38:54;;;;;;;10.90;8.00;;;12.00;99.90;;;;;;5096369;28;20527;-69
2023/09/29 00:41:21;;;;;;;10.47;8.40;;;11.90;99.90;;;;;;5095998;28;20197;-69
2023/09/29 00:43:48;;;;;;;8.97;8.17;;;11.70;99.90;;;;;;5096037;28;20193;-69
2023/09/29 00:46:16;;;;;;;8.27;7.47;;;11.60;99.90;;;;;;5095884;28;20200;-69
2023/09/29 00:48:42;;;;;;;9.43;7.60;;;11.40;99.90;;;;;;5096217;28;20204;-68
2023/09/29 00:51:10;;;;;;;9.33;7.80;;;11.50;99.90;;;;;;5096176;28;20200;-69
2023/09/29 00:53:38;;;;;;;11.40;7.70;;;11.40;99.90;;;;;;5096059;28;20551;-69
2023/09/29 00:56:06;;;;;;;10.43;8.33;;;11.40;99.90;;;;;;5095846;28;20196;-68
2023/09/29 00:58:33;;;;;;;10.17;8.00;;;11.30;99.90;;;;;;5095792;28;20200;-69
2023/09/29 01:01:00;;;;;;;8.90;8.00;;;11.20;99.90;;;;;;5095715;28;20195;-69
2023/09/29 01:03:28;;;;;;;9.23;8.13;;;11.10;99.90;;;;;;5095703;28;20749;-69
2023/09/29 01:05:55;;;;;;;10.10;8.20;;;11.30;99.90;;;;;;5095929;28;20283;-68
2023/09/29 01:08:23;;;;;;;13.30;8.30;;;11.30;99.90;;;;;;5095466;28;20200;-69
2023/09/29 01:10:50;;;;;;;9.33;8.10;;;11.30;99.90;;;;;;5095606;28;20200;-68
2023/09/29 01:13:17;;;;;;;10.23;7.97;;;11.30;99.90;;;;;;5095365;28;20192;-69
2023/09/29 01:15:44;;;;;;;9.33;8.17;;;11.20;99.90;;;;;;5095777;28;20207;-68
2023/09/29 01:18:10;;;;;;;12.90;8.77;;;11.20;99.90;;;;;;5095472;28;20224;-69
2023/09/29 01:20:40;;;;;;;9.43;8.53;;;11.30;99.90;;;;;;5095493;28;20257;-69
2023/09/29 01:23:07;;;;;;;9.80;8.73;;;11.30;99.90;;;;;;5095456;28;20208;-68
2023/09/29 01:25:36;;;;;;;11.13;8.60;;;11.30;99.90;;;;;;5095279;28;20203;-69
2023/09/29 01:28:05;;;;;;;10.23;8.97;;;11.30;99.90;;;;;;5095188;28;20204;-69
2023/09/29 01:30:32;;;;;;;13.17;9.87;;;11.30;99.90;;;;;;5095417;28;20200;-69
2023/09/29 01:32:59;;;;;;;13.23;10.43;;;11.30;99.90;;;;;;5095348;28;20196;-69
2023/09/29 01:35:27;;;;;;;12.07;10.23;;;11.20;99.90;;;;;;5095038;28;20234;-69
2023/09/29 01:37:55;;;;;;;11.57;9.87;;;11.20;99.90;;;;;;5095119;28;20230;-69
2023/09/29 01:40:22;;;;;;;10.83;8.87;;;11.20;99.90;;;;;;5094980;28;20200;-69
2023/09/29 01:42:52;;;;;;;13.77;10.27;;;11.20;99.90;;;;;;5095000;28;20196;-69
2023/09/29 01:45:21;;;;;;;12.47;10.07;;;11.20;99.90;;;;;;5094994;28;20188;-69
2023/09/29 01:47:49;;;;;;;12.00;9.33;;;11.10;99.90;;;;;;5095051;28;20192;-69
2023/09/29 01:50:17;;;;;;;10.20;9.20;;;11.10;99.90;;;;;;5094902;28;20196;-69
2023/09/29 01:52:45;;;;;;;10.40;9.10;;;11.10;99.90;;;;;;5094789;28;20196;-68
2023/09/29 01:55:14;;;;;;;11.57;9.50;;;10.90;99.90;;;;;;5094628;28;20197;-69
2023/09/29 01:57:41;;;;;;;10.47;9.00;;;11.00;99.90;;;;;;5094897;28;20224;-68
2023/09/29 02:00:14;;;;;;;10.37;9.03;;;10.90;99.90;;;;;;5094750;28;20238;-68
2023/09/29 02:02:40;;;;;;;10.23;9.23;;;10.90;99.90;;;;;;5094616;28;20202;-67
2023/09/29 02:05:09;;;;;;;11.67;9.33;;;11.00;99.90;;;;;;5094479;28;20202;-68
2023/09/29 02:07:36;;;;;;;12.47;10.40;;;11.00;99.90;;;;;;5094438;28;20196;-69
2023/09/29 02:10:03;;;;;;;10.60;9.43;;;11.00;99.90;;;;;;5094465;28;20218;-69
2023/09/29 02:12:31;;;;;;;12.57;9.63;;;11.00;99.90;;;;;;5094582;28;20279;-69
2023/09/29 02:14:58;;;;;;;11.30;10.10;;;11.00;99.90;;;;;;5094582;28;20287;-69
2023/09/29 02:17:27;;;;;;;10.80;9.63;;;11.00;99.90;;;;;;5094315;28;20224;-69
2023/09/29 02:19:54;;;;;;;12.53;9.23;;;11.00;99.90;;;;;;5094186;28;20245;-69
2023/09/29 02:22:20;;;;;;;13.53;10.63;;;11.00;99.90;;;;;;5094183;28;20204;-69
2023/09/29 02:24:47;;;;;;;14.90;10.80;;;11.00;99.90;;;;;;5094156;28;20204;-69
2023/09/29 02:27:15;;;;;;;16.83;10.67;;;10.90;99.90;;;;;;5094230;28;20207;-69
2023/09/29 02:29:42;;;;;;;13.37;11.67;;;11.00;99.90;;;;;;5094123;28;20257;-69
2023/09/29 02:32:09;;;;;;;12.80;10.00;;;11.00;99.90;;;;;;5094082;28;20269;-69
2023/09/29 02:34:37;;;;;;;13.10;10.73;;;11.00;99.90;;;;;;5093708;28;20245;-69
2023/09/29 02:37:04;;;;;;;11.40;10.03;;;11.00;99.90;;;;;;5093818;28;20309;-69
2023/09/29 02:39:31;;;;;;;13.23;10.80;;;10.90;99.90;;;;;;5094073;28;20290;-68
2023/09/29 02:41:57;;;;;;;15.37;10.90;;;10.90;99.90;;;;;;5093915;28;20197;-69
2023/09/29 02:44:26;;;;;;;12.27;10.40;;;10.90;99.90;;;;;;5093826;28;20192;-68
2023/09/29 02:46:52;;;;;;;12.17;10.87;;;10.80;99.90;;;;;;5093728;28;20200;-68
2023/09/29 02:49:20;;;;;;;12.63;11.00;;;10.80;99.90;;;;;;5093597;28;20196;-68
2023/09/29 02:51:48;;;;;;;13.63;11.90;;;10.80;99.90;;;;;;5093928;28;20196;-68
2023/09/29 02:54:15;;;;;;;12.47;11.03;;;10.90;99.90;;;;;;5093707;28;20204;-68
2023/09/29 02:56:41;;;;;;;13.43;10.50;;;10.80;99.90;;;;;;5093415;28;20203;-68
2023/09/29 02:59:08;;;;;;;12.70;10.50;;;10.80;99.90;;;;;;5092952;28;20196;-68
2023/09/29 03:01:35;;;;;;;12.33;11.00;;;10.70;99.90;;;;;;5093451;28;20192;-68
2023/09/29 03:04:01;;;;;;;15.60;11.07;;;10.70;99.90;;;;;;5093343;28;20196;-68
2023/09/29 03:06:28;;;;;;;11.70;10.40;;;10.70;99.90;;;;;;5093322;28;20254;-68
2023/09/29 03:08:58;;;;;;;13.70;10.90;;;10.60;99.90;;;;;;5093308;28;20208;-69
2023/09/29 03:11:25;;;;;;;12.10;10.90;;;10.60;99.90;;;;;;5093388;28;20196;-68
2023/09/29 03:13:54;;;;;;;13.50;11.73;;;10.50;99.90;;;;;;5093171;28;20712;-69
2023/09/29 03:16:21;;;;;;;16.80;11.80;;;10.50;99.90;;;;;;5093145;28;20239;-69
2023/09/29 03:18:48;;;;;;;15.07;11.37;;;10.50;99.90;;;;;;5093337;28;20223;-69
2023/09/29 03:21:15;;;;;;;14.87;11.57;;;10.50;99.90;;;;;;5093252;28;20196;-69
2023/09/29 03:23:42;;;;;;;14.53;11.80;;;10.50;99.90;;;;;;5093172;28;20303;-69
2023/09/29 03:26:11;;;;;;;15.10;12.43;;;10.50;99.90;;;;;;5092846;28;20610;-68
2023/09/29 03:28:38;;;;;;;14.03;11.90;;;10.50;99.90;;;;;;5092999;28;20651;-69
2023/09/29 03:31:07;;;;;;;13.80;11.70;;;10.50;99.90;;;;;;5092970;28;20193;-69
2023/09/29 03:33:35;;;;;;;17.73;12.70;;;10.50;99.90;;;;;;5093132;28;20204;-68
2023/09/29 03:36:03;;;;;;;14.43;11.97;;;10.50;99.90;;;;;;5092848;28;20228;-69
2023/09/29 03:38:30;;;;;;;15.50;11.23;;;10.50;99.90;;;;;;5092928;28;20293;-69
2023/09/29 03:40:57;;;;;;;13.23;11.83;;;10.50;99.90;;;;;;5092903;28;20196;-69
2023/09/29 03:43:25;;;;;;;13.00;11.23;;;10.50;99.90;;;;;;5092805;28;20200;-69
2023/09/29 03:45:53;;;;;;;13.50;11.10;;;10.30;99.90;;;;;;5092684;28;20652;-69
2023/09/29 03:48:20;;;;;;;15.77;11.17;;;10.30;99.90;;;;;;5093031;28;20196;-69
2023/09/29 03:50:49;;;;;;;15.33;11.60;;;10.40;99.90;;;;;;5092811;28;20200;-68
2023/09/29 03:53:16;;;;;;;14.07;11.40;;;10.30;99.90;;;;;;5092850;28;20720;-69
2023/09/29 03:55:43;;;;;;;12.97;11.57;;;10.30;99.90;;;;;;5092741;28;20207;-69
2023/09/29 03:58:10;;;;;;;13.90;11.70;;;10.30;99.90;;;;;;5092593;28;20758;-69
2023/09/29 04:00:38;;;;;;;12.20;10.10;;;10.40;99.90;;;;;;5092587;28;20201;-69
2023/09/29 04:03:06;;;;;;;13.77;11.13;;;10.40;99.90;;;;;;5092797;28;20200;-69
2023/09/29 04:05:33;;;;;;;12.60;10.57;;;10.40;99.90;;;;;;5092581;28;20647;-69
2023/09/29 04:08:01;;;;;;;11.80;10.50;;;10.40;99.90;;;;;;5092564;28;20242;-67
2023/09/29 04:10:28;;;;;;;13.57;11.07;;;10.40;99.90;;;;;;5096321;28;20228;-69
2023/09/29 04:12:55;;;;;;;13.70;10.60;;;10.40;99.90;;;;;;5096832;28;20283;-69
2023/09/29 04:15:23;;;;;;;10.87;9.77;;;10.40;99.90;;;;;;5096762;28;20200;-69
2023/09/29 04:17:51;;;;;;;12.57;9.87;;;10.40;99.90;;;;;;5096642;28;20226;-69
2023/09/29 04:20:18;;;;;;;13.57;10.33;;;10.40;99.90;;;;;;5096622;28;20192;-69
2023/09/29 04:22:45;;;;;;;11.53;10.30;;;10.40;99.90;;;;;;5096506;28;20197;-69
2023/09/29 04:25:11;;;;;;;19.00;10.63;;;10.30;99.90;;;;;;5096297;28;20197;-69
2023/09/29 04:27:38;;;;;;;13.23;10.20;;;10.20;99.90;;;;;;5096280;28;20663;-68
2023/09/29 04:30:07;;;;;;;14.07;10.23;;;10.20;99.90;;;;;;5096512;28;20230;-67
2023/09/29 04:32:34;;;;;;;14.33;10.70;;;10.30;99.90;;;;;;5096300;28;20291;-68
2023/09/29 04:35:02;;;;;;;11.63;10.43;;;10.30;99.90;;;;;;5096080;28;20285;-68
2023/09/29 04:37:28;;;;;;;14.03;10.70;;;10.30;99.90;;;;;;5095867;28;20256;-68
2023/09/29 04:39:55;;;;;;;11.90;10.27;;;10.30;99.90;;;;;;5096025;28;20652;-68
2023/09/29 04:42:22;;;;;;;10.37;9.23;;;10.30;99.90;;;;;;5096174;28;20196;-68
2023/09/29 04:44:49;;;;;;;10.67;9.60;;;10.20;99.90;;;;;;5096210;28;20207;-68
2023/09/29 04:47:15;;;;;;;12.30;10.10;;;10.30;99.90;;;;;;5096113;28;20265;-68
2023/09/29 04:49:42;;;;;;;15.10;10.30;;;10.30;99.90;;;;;;5096003;28;20219;-68
2023/09/29 04:52:10;;;;;;;16.20;11.73;;;10.20;99.90;;;;;;5095833;28;20278;-69
2023/09/29 04:54:37;;;;;;;11.40;10.20;;;10.20;99.90;;;;;;5096077;28;20222;-68
2023/09/29 04:57:04;;;;;;;12.50;11.20;;;10.20;99.90;;;;;;5096046;28;20397;-68
2023/09/29 04:59:30;;;;;;;12.63;11.33;;;10.20;99.90;;;;;;5095871;28;20220;-69
2023/09/29 05:01:57;;;;;;;11.53;10.27;;;10.20;99.90;;;;;;5095763;28;20273;-69
2023/09/29 05:04:23;;;;;;;13.97;11.43;;;10.10;99.90;;;;;;5095570;28;20675;-69
2023/09/29 05:06:51;;;;;;;14.93;11.17;;;10.10;99.90;;;;;;5095708;28;20192;-69
2023/09/29 05:09:19;;;;;;;12.97;10.10;;;10.10;99.90;;;;;;5095766;28;20254;-69
2023/09/29 05:11:46;;;;;;;13.53;10.93;;;10.00;99.90;;;;;;5095597;28;20278;-69
2023/09/29 05:14:13;;;;;;;13.30;11.07;;;10.00;99.90;;;;;;5095646;28;20302;-69
2023/09/29 05:16:40;;;;;;;13.33;10.37;;;10.00;99.90;;;;;;5095485;28;20196;-69
2023/09/29 05:19:06;;;;;;;15.50;11.73;;;10.10;99.90;;;;;;5095241;28;20219;-69
2023/09/29 05:21:34;;;;;;;12.47;11.17;;;10.10;99.90;;;;;;5094736;28;20209;-69
2023/09/29 05:24:01;;;;;;;12.87;11.13;;;10.20;99.90;;;;;;5095325;28;20731;-69
2023/09/29 05:26:29;;;;;;;13.50;10.53;;;10.30;99.90;;;;;;5095462;28;20287;-69
2023/09/29 05:28:56;;;;;;;13.07;10.37;;;10.40;99.90;;;;;;5095225;28;20195;-68
2023/09/29 05:31:22;;;;;;;14.53;10.90;;;10.50;99.90;;;;;;5095122;28;20227;-68
2023/09/29 05:33:53;;;;;;;12.70;10.00;;;10.50;99.90;;;;;;5095068;28;20619;-69
2023/09/29 05:36:20;;;;;;;13.77;11.67;;;10.60;99.90;;;;;;5094883;28;20311;-68
2023/09/29 05:38:47;;;;;;;12.17;10.87;;;10.60;99.90;;;;;;5094849;28;20318;-68
2023/09/29 05:41:13;;;;;;;18.10;11.50;;;10.70;99.90;;;;;;5095077;28;20200;-69
2023/09/29 05:43:41;;;;;;;20.47;12.67;;;10.80;99.90;;;;;;5094918;28;20200;-69
2023/09/29 05:46:08;;;;;;;19.03;11.57;;;10.90;99.90;;;;;;5094762;28;20265;-68
2023/09/29 05:48:34;;;;;;;19.07;12.50;;;11.00;99.90;;;;;;5094455;28;20659;-68
2023/09/29 05:51:01;;;;;;;24.20;11.93;;;11.00;99.90;;;;;;5094753;28;20620;-69
2023/09/29 05:53:28;;;;;;;14.67;10.33;;;11.20;99.90;;;;;;5094567;28;20193;-68
2023/09/29 05:55:54;;;;;;;17.23;11.03;;;11.20;99.90;;;;;;5094678;28;20253;-68
2023/09/29 05:58:22;;;;;;;17.10;12.00;;;11.40;99.90;;;;;;5094473;28;20270;-68
2023/09/29 06:00:50;;;;;;;20.97;11.80;;;11.50;99.90;;;;;;5094520;28;20200;-69
2023/09/29 06:03:17;;;;;;;18.63;12.30;;;11.50;99.90;;;;;;5094762;28;20253;-69
2023/09/29 06:05:43;;;;;;;17.60;10.70;;;11.50;99.90;;;;;;5094664;28;20606;-68
2023/09/29 06:08:10;;;;;;;17.90;11.23;;;11.50;99.90;;;;;;5094414;28;20697;-68
2023/09/29 06:10:37;;;;;;;15.47;10.77;;;11.60;99.90;;;;;;5094392;28;20192;-69
2023/09/29 06:13:04;;;;;;;13.90;10.43;;;11.60;99.90;;;;;;5094381;28;20193;-68
2023/09/29 06:15:31;;;;;;;13.23;9.70;;;11.60;99.90;;;;;;5094276;28;20207;-68
2023/09/29 06:18:00;;;;;;;15.47;10.30;;;11.60;99.90;;;;;;5094219;28;20274;-68
2023/09/29 06:20:26;;;;;;;10.90;9.00;;;11.60;99.90;;;;;;5094125;28;20631;-69
2023/09/29 06:22:53;;;;;;;11.90;9.97;;;11.70;99.90;;;;;;5094294;28;20533;-68
2023/09/29 06:25:19;;;;;;;16.77;10.43;;;11.80;99.90;;;;;;5094104;28;20193;-68
2023/09/29 06:27:46;;;;;;;15.27;10.83;;;11.90;99.90;;;;;;5094042;28;20200;-68
2023/09/29 06:30:13;;;;;;;13.93;10.20;;;12.00;99.90;;;;;;5093923;28;20202;-68
2023/09/29 06:32:41;;;;;;;14.83;10.20;;;12.10;99.90;;;;;;5093878;28;20655;-69
2023/09/29 06:35:11;;;;;;;12.63;9.70;;;12.20;99.90;;;;;;5093955;28;20224;-69
2023/09/29 06:37:38;;;;;;;15.07;10.03;;;12.40;99.90;;;;;;5093981;28;20680;-70
2023/09/29 06:40:08;;;;;;;13.93;9.40;;;12.60;99.90;;;;;;5093900;28;20609;-69
2023/09/29 06:42:37;;;;;;;13.63;9.43;;;12.70;99.90;;;;;;5093806;28;20880;-70
2023/09/29 06:45:04;;;;;;;12.73;9.20;;;12.90;99.90;;;;;;5093909;28;20602;-69
2023/09/29 06:47:30;;;;;;;9.67;8.70;;;13.10;99.90;;;;;;5094011;28;20200;-83
2023/09/29 06:49:57;;;;;;;13.10;9.00;;;13.20;99.90;;;;;;5093950;28;20196;-69
2023/09/29 06:52:25;;;;;;;13.00;8.70;;;13.40;99.90;;;;;;5093720;28;20200;-69
2023/09/29 06:54:52;;;;;;;12.63;8.93;;;13.70;99.90;;;;;;5093728;28;20207;-69
2023/09/29 06:57:18;;;;;;;13.03;8.70;;;14.00;99.90;;;;;;5093546;28;20253;-70
2023/09/29 06:59:45;;;;;;;16.60;9.00;;;14.40;99.90;;;;;;5093573;28;20224;-69
2023/09/29 07:02:12;;;;;;;11.50;9.03;;;14.70;99.90;;;;;;5093356;28;20196;-70
2023/09/29 07:04:39;;;;;;;13.88;8.85;;;14.90;99.90;;;;;;5093709;28;20249;-70
2023/09/29 07:07:05;;;;;;;12.73;9.07;;;15.10;99.90;;;;;;5093622;28;20204;-70
2023/09/29 07:09:33;;;;;;;11.95;8.88;;;15.40;99.90;;;;;;5093704;28;20201;-69
2023/09/29 07:12:00;;;;;;;11.88;8.57;;;15.70;99.90;;;;;;5093583;28;20197;-70
2023/09/29 07:14:27;;;;;;;10.48;7.90;;;15.80;99.90;;;;;;5093356;28;20199;-69
2023/09/29 07:16:54;;;;;;;11.68;8.85;;;16.00;99.90;;;;;;5093316;28;20260;-69
2023/09/29 07:19:21;;;;;;;24.35;8.82;;;16.30;99.90;;;;;;5093015;28;20247;-69
2023/09/29 07:21:47;;;;;;;13.05;9.02;;;16.70;99.90;;;;;;5093430;28;20204;-70
2023/09/29 07:24:14;;;;;;;12.65;9.23;;;17.00;99.90;;;;;;5092870;28;20196;-70
2023/09/29 07:26:42;;;;;;;14.32;8.38;;;17.30;99.90;;;;;;5093214;28;20196;-70
2023/09/29 07:29:09;;;;;;;13.20;7.97;;;17.60;99.90;;;;;;5093268;28;20201;-68
2023/09/29 07:31:36;;;;;;;11.48;8.23;;;17.90;99.90;;;;;;5093070;28;20254;-69
2023/09/29 07:34:03;;;;;;;15.07;8.65;;;18.20;99.90;;;;;;5092940;28;20203;-69
2023/09/29 07:36:31;;;;;;;13.73;8.65;;;18.50;99.90;;;;;;5092755;28;20228;-69
2023/09/29 07:38:58;;;;;;;9.35;7.32;;;18.80;99.90;;;;;;5092737;28;20228;-69
2023/09/29 07:41:25;;;;;;;8.93;7.28;;;18.90;99.90;;;;;;5092931;28;20345;-70
2023/09/29 07:43:53;;;;;;;8.73;7.82;;;19.10;99.90;;;;;;5092385;28;20201;-70
2023/09/29 07:46:19;;;;;;;8.18;7.38;;;19.20;99.90;;;;;;5092656;28;20200;-84
2023/09/29 07:48:46;;;;;;;10.10;7.25;;;19.50;99.90;;;;;;5092698;28;20203;-70
2023/09/29 07:51:13;;;;;;;9.73;7.18;;;19.80;99.90;;;;;;5092601;28;20299;-70
2023/09/29 07:53:39;;;;;;;11.10;7.25;;;20.10;99.90;;;;;;5092621;28;20559;-70
2023/09/29 07:56:06;;;;;;;13.57;7.20;;;20.70;99.90;;;;;;5092597;28;20709;-71
2023/09/29 07:58:32;;;;;;;9.00;7.05;;;21.30;99.90;;;;;;5092470;28;20686;-71
2023/09/29 08:01:00;;;;;;;7.07;6.38;;;21.40;99.90;;;;;;5092675;28;20222;-70
2023/09/29 08:03:27;;;;;;;7.38;6.55;;;21.80;99.90;;;;;;5092671;28;20227;-71
2023/09/29 08:05:54;;;;;;;8.88;6.55;;;22.00;99.90;;;;;;5092478;28;20268;-71
2023/09/29 08:08:21;;;;;;;12.75;6.57;;;22.00;99.90;;;;;;5092790;28;20208;-70
2023/09/29 08:10:48;;;;;;;8.77;5.93;;;22.00;99.90;;;;;;5092440;28;20674;-70
2023/09/29 08:13:16;;;;;;;9.43;5.72;;;22.30;99.90;;;;;;5092263;28;20710;-69
2023/09/29 08:15:43;;;;;;;14.23;6.07;;;22.50;99.90;;;;;;5092622;28;20203;-69
2023/09/29 08:18:11;;;;;;;7.68;6.18;;;22.60;99.90;;;;;;5091920;28;20196;-69
2023/09/29 08:20:38;;;;;;;9.30;5.20;;;22.80;99.90;;;;;;5092440;28;20261;-69
2023/09/29 08:23:05;;;;;;;9.98;5.47;;;22.80;99.90;;;;;;5091655;28;20196;-69
2023/09/29 08:25:32;;;;;;;5.70;4.82;;;22.80;99.90;;;;;;5092388;28;20287;-69
2023/09/29 08:28:02;;;;;;;6.18;4.90;;;22.70;99.90;;;;;;5092576;28;20283;-69
2023/09/29 08:30:29;;;;;;;7.80;5.10;;;22.60;99.90;;;;;;5092432;28;20287;-69
2023/09/29 08:32:56;;;;;;;6.97;5.07;;;22.70;99.90;;;;;;5092402;28;20717;-69
2023/09/29 08:35:27;;;;;;;5.80;5.18;;;22.70;99.90;;;;;;5092177;28;20584;-70
2023/09/29 08:37:54;;;;;;;6.35;5.07;;;22.90;99.90;;;;;;5092357;28;20690;-69
2023/09/29 08:40:20;;;;;;;7.13;4.90;;;22.90;99.90;;;;;;5092423;28;20238;-70
2023/09/29 08:42:49;;;;;;;5.57;5.07;;;23.10;99.90;;;;;;5092477;28;20196;-68
2023/09/29 08:45:17;;;;;;;7.50;5.00;;;23.10;99.90;;;;;;5092353;28;20196;-68
2023/09/29 08:47:48;;;;;;;5.95;4.75;;;23.10;99.90;;;;;;5092222;28;20197;-69
2023/09/29 08:50:16;;;;;;;8.27;4.90;;;23.40;99.90;;;;;;5092480;28;20200;-69
2023/09/29 08:52:46;;;;;;;6.43;4.10;;;23.50;99.90;;;;;;5092251;28;20246;-69
2023/09/29 08:55:13;;;;;;;4.85;4.35;;;23.60;99.90;;;;;;5092383;28;20224;-69
2023/09/29 08:57:41;;;;;;;7.32;4.50;;;24.10;99.90;;;;;;5095918;28;20250;-69
2023/09/29 09:00:12;;;;;;;6.40;4.85;;;24.50;99.90;;;;;;5095766;28;20262;-69
2023/09/29 09:02:41;;;;;;;7.28;4.55;;;25.00;99.50;;;;;;5096029;28;20552;-69
2023/09/29 09:05:10;;;;;;;6.03;4.90;;;25.60;97.90;;;;;;5095873;28;20207;-69
2023/09/29 09:07:37;;;;;;;5.18;4.53;;;26.30;97.20;;;;;;5095690;28;20200;-69
2023/09/29 09:10:06;;;;;;;5.28;4.38;;;26.00;96.10;;;;;;5095729;28;20239;-69
2023/09/29 09:12:33;;;;;;;5.18;4.45;;;25.80;95.70;;;;;;5095590;28;20246;-69
2023/09/29 09:15:00;;;;;;;6.82;4.43;;;25.60;93.50;;;;;;5095558;28;20608;-69
2023/09/29 09:17:28;;;;;;;8.77;4.35;;;25.80;93.70;;;;;;5095575;28;20792;-69
2023/09/29 09:19:54;;;;;;;13.55;4.70;;;26.00;93.30;;;;;;5095558;28;20315;-69
2023/09/29 09:22:24;;;;;;;6.07;4.28;;;25.90;93.40;;;;;;5095442;28;20513;-69
2023/09/29 09:24:51;;;;;;;5.07;4.32;;;26.20;92.80;;;;;;5095707;28;20243;-69
2023/09/29 09:27:19;;;;;;;5.55;4.47;;;26.50;92.60;;;;;;5095334;28;20291;-69
2023/09/29 09:29:46;;;;;;;8.98;4.78;;;26.60;89.20;;;;;;5095283;28;20409;-69
2023/09/29 09:32:14;;;;;;;9.02;4.00;;;26.60;90.60;;;;;;5095454;28;20253;-69
2023/09/29 09:34:42;;;;;;;7.45;4.15;;;26.80;91.20;;;;;;5095148;28;20192;-69
2023/09/29 09:37:11;;;;;;;9.70;4.28;;;26.50;90.30;;;;;;5095194;28;20651;-69
2023/09/29 09:39:38;;;;;;;6.60;3.90;;;26.60;89.90;;;;;;5095026;28;20224;-69
2023/09/29 09:42:05;;;;;;;5.22;4.25;;;26.40;86.50;;;;;;5095379;28;20279;-69
2023/09/29 09:44:34;;;;;;;5.60;4.07;;;25.60;86.50;;;;;;5095240;28;20223;-69
2023/09/29 09:47:01;;;;;;;4.30;3.85;;;25.60;87.70;;;;;;5095152;28;20204;-69
2023/09/29 09:49:36;;;;;;;6.03;3.72;;;26.20;86.10;;;;;;5094874;28;20207;-69
2023/09/29 09:52:06;;;;;;;4.43;4.03;;;26.60;86.40;;;;;;5094883;28;20195;-69
2023/09/29 09:54:44;;;;;;;7.35;3.90;;;27.30;84.80;;;;;;5095177;28;20291;-69
2023/09/29 09:57:13;;;;;;;4.65;3.30;;;27.10;81.20;;;;;;5095023;28;20196;-69
2023/09/29 09:59:43;;;;;;;4.68;3.50;;;26.80;76.40;;;;;;5094780;28;20231;-69
2023/09/29 10:02:11;;;;;;;5.40;3.38;;;26.10;74.50;;;;;;5094784;28;20222;-69
2023/09/29 10:04:39;;;;;;;5.78;3.70;;;26.10;74.60;;;;;;5094625;28;20196;-69
2023/09/29 10:07:07;;;;;;;5.63;3.47;;;25.70;74.20;;;;;;5094277;28;20843;-69
2023/09/29 10:09:44;;;;;;;6.07;3.60;;;25.60;73.50;;;;;;5094786;28;20200;-70
2023/09/29 10:12:23;;;;;;;6.35;3.70;;;25.70;73.60;;;;;;5094677;28;20199;-70
2023/09/29 10:14:52;;;;;;;4.65;3.63;;;26.00;73.40;;;;;;5094704;28;20200;-70
2023/09/29 10:17:20;;;;;;;4.63;3.80;;;25.80;73.20;;;;;;5094449;28;20750;-68
2023/09/29 10:19:50;;;;;;;5.80;3.78;;;25.80;73.70;;;;;;5094349;28;20220;-69
2023/09/29 10:22:24;;;;;;;3.88;3.53;;;25.60;74.10;;;;;;5094193;28;20624;-68
2023/09/29 10:24:51;;;;;;;7.22;4.50;;;25.70;74.70;;;;;;5094427;28;20192;-69
2023/09/29 10:27:28;;;;;;;5.40;3.97;;;25.80;75.20;;;;;;5094291;28;20196;-69
2023/09/29 10:30:16;;;;;;;5.80;3.80;;;25.70;75.50;;;;;;5094416;28;20215;-69
2023/09/29 10:32:47;;;;;;;5.95;3.90;;;25.60;75.50;;;;;;5094280;28;20533;-69
2023/09/29 10:35:19;;;;;;;5.85;4.13;;;26.10;75.60;;;;;;5093926;28;20323;-69
2023/09/29 10:37:49;;;;;;;4.88;4.00;;;26.20;74.60;;;;;;5094141;28;20287;-69
2023/09/29 10:40:21;;;;;;;4.68;3.42;;;26.40;75.70;;;;;;5093847;28;20905;-69
2023/09/29 10:42:54;;;;;;;8.35;4.10;;;26.80;74.70;;;;;;5094025;28;20287;-69
2023/09/29 10:45:28;;;;;;;4.80;3.60;;;26.60;75.00;;;;;;5093920;28;20200;-69
2023/09/29 10:48:00;;;;;;;3.95;3.55;;;26.90;75.20;;;;;;5093950;28;20202;-69
2023/09/29 10:50:28;;;;;;;7.93;3.60;;;27.10;74.10;;;;;;5093749;28;20204;-69
2023/09/29 10:52:54;;;;;;;4.45;3.53;;;27.00;74.30;;;;;;5093911;28;20203;-69
2023/09/29 10:55:21;;;;;;;7.47;3.85;;;26.90;74.80;;;;;;5093764;28;20564;-69
2023/09/29 10:57:49;;;;;;;8.30;4.00;;;27.00;74.50;;;;;;5093434;28;20204;-84
2023/09/29 11:00:16;;;;;;;5.00;3.70;;;27.30;74.10;;;;;;5093184;28;20675;-70
2023/09/29 11:02:48;;;;;;;4.20;3.80;;;27.40;74.40;;;;;;5093607;28;20254;-70
2023/09/29 11:05:15;;;;;;;5.40;3.60;;;27.50;73.70;;;;;;5093340;28;20196;-70
2023/09/29 11:07:46;;;;;;;6.35;3.70;;;27.80;73.80;;;;;;5093436;28;20200;-70
2023/09/29 11:10:14;;;;;;;5.28;4.10;;;27.70;73.80;;;;;;5093417;28;20196;-70
2023/09/29 11:12:45;;;;;;;5.30;4.05;;;27.50;73.30;;;;;;5093298;28;20197;-70
2023/09/29 11:15:13;;;;;;;4.35;3.83;;;27.00;74.30;;;;;;5093062;28;20559;-70
2023/09/29 11:17:45;;;;;;;7.00;3.75;;;27.00;74.40;;;;;;5092940;28;20550;-71
2023/09/29 11:20:16;;;;;;;4.80;3.58;;;28.10;73.40;;;;;;5092488;28;20613;-70
2023/09/29 11:22:43;;;;;;;6.38;3.70;;;29.70;70.60;;;;;;5093256;28;20207;-71
2023/09/29 11:25:17;;;;;;;5.45;3.95;;;30.60;67.70;;;;;;5093030;28;20197;-71
2023/09/29 11:27:49;;;;;;;6.50;3.95;;;31.20;66.70;;;;;;5093048;28;20679;-71
2023/09/29 11:30:16;;;;;;;7.30;3.80;;;31.80;63.60;;;;;;5093021;28;20543;-71
2023/09/29 11:32:44;;;;;;;4.75;3.92;;;31.40;64.20;;;;;;5093228;28;20207;-71
2023/09/29 11:35:13;;;;;;;5.07;3.78;;;31.30;61.60;;;;;;5092963;28;20223;-71
2023/09/29 11:37:40;;;;;;;5.78;3.40;;;29.50;63.00;;;;;;5092922;28;20724;-71
2023/09/29 11:40:12;;;;;;;8.63;3.70;;;30.10;63.70;;;;;;5092951;28;20220;-71
2023/09/29 11:42:39;;;;;;;5.72;3.85;;;31.40;61.30;;;;;;5092846;28;20283;-71
2023/09/29 11:45:08;;;;;;;7.85;3.55;;;32.80;59.10;;;;;;5092994;28;20195;-72
2023/09/29 11:47:35;;;;;;;4.45;3.65;;;32.60;57.20;;;;;;5093008;28;20196;-70
2023/09/29 11:50:03;;;;;;;4.30;3.67;;;32.10;56.70;;;;;;5092834;28;20203;-71
2023/09/29 11:52:30;;;;;;;3.53;3.08;;;31.90;56.50;;;;;;5092690;28;20628;-71
2023/09/29 11:54:57;;;;;;;4.50;3.75;;;33.30;55.50;;;;;;5092462;28;20200;-71
2023/09/29 11:57:23;;;;;;;5.25;3.40;;;33.90;54.00;;;;;;5092579;28;20206;-71
2023/09/29 11:59:50;;;;;;;5.28;3.30;;;34.20;53.60;;;;;;5092795;28;20219;-71
2023/09/29 12:02:17;;;;;;;4.65;3.58;;;33.90;51.90;;;;;;5092762;28;20196;-71
2023/09/29 12:04:43;;;;;;;5.13;3.40;;;33.60;52.10;;;;;;5092608;28;20199;-71
2023/09/29 12:07:11;;;;;;;4.85;3.67;;;33.00;51.60;;;;;;5092696;28;20609;-71
2023/09/29 12:09:38;;;;;;;6.35;3.88;;;33.70;51.10;;;;;;5092473;28;20245;-72
2023/09/29 12:12:05;;;;;;;6.07;3.40;;;35.50;49.70;;;;;;5092883;28;20203;-70
2023/09/29 12:14:32;;;;;;;5.28;3.65;;;33.50;49.20;;;;;;5092788;28;20207;-73
2023/09/29 12:17:00;;;;;;;5.63;3.70;;;35.30;48.80;;;;;;5092564;28;20203;-71
2023/09/29 12:19:27;;;;;;;6.40;3.70;;;36.00;46.30;;;;;;5092548;28;20195;-72
2023/09/29 12:21:55;;;;;;;4.78;3.50;;;35.00;46.70;;;;;;5092445;28;20267;-70
2023/09/29 12:24:23;;;;;;;4.18;3.33;;;33.60;47.10;;;;;;5092166;28;20307;-72
2023/09/29 12:26:50;;;;;;;5.72;4.03;;;31.90;49.60;;;;;;5092618;28;20203;-74
2023/09/29 12:29:16;;;;;;;3.78;3.47;;;31.30;50.90;;;;;;5092488;28;20647;-76
2023/09/29 12:31:43;;;;;;;4.28;3.83;;;32.00;50.60;;;;;;5096086;28;20204;-73
2023/09/29 12:34:10;;;;;;;6.55;3.88;;;32.80;49.80;;;;;;5096192;28;20203;-72
2023/09/29 12:36:37;;;;;;;4.30;3.50;;;33.20;49.30;;;;;;5096070;28;20228;-72
2023/09/29 12:39:04;;;;;;;3.45;3.15;;;33.80;48.20;;;;;;5096377;28;20198;-72
2023/09/29 12:41:32;;;;;;;6.32;3.30;;;34.90;47.90;;;;;;5096123;28;20723;-72